Vera, Missouri
Current Conditions -  °F | °C
As of 4:15 AM on Sunday 25 Jan 2015 (Local Time) from KPPQ Reporting Station
Drizzle Drizzle  
Wind Chill: 45°   Ceiling: 4200
Heat Index: 45°   Visibility: 10mi
Dew Point: 35°   Wind: 0mph
Humidity: 68%   Direction: NA
Pressure: 29.59"   Gusts: NA
Location:  39.321°N, 91.1912°W
Report Text: KPPQ 251015Z AUTO 00000KT 10SM -DZ BKN042 OVC050 07/02 A2959 RMK AO2 T00700015
Loading
Personal Weather Stations






























Interactive Weather Map New forecast layout! Learn more

10-Day Weather Forecast

Advertisements
Track Severe Weather on mobile